Historyczne dane pomiarowe

Dodano dane terminowe – wersja testowa.

Dane z okresu 1951-2019

Wersja bazy: 1.34 [2019-03-16, lista zmian], aktualizacja planowana na 2019-04-15

Dane meteo z obszaru Polski uzyskane na podstawie danych udostępnionych przez Instytut Meteorologii i Gospodarki Wodnej – Państwowy Instytut Badawczy.

 

Wybierz Datę:    

       

TemperaturaWilgotnośćWiatrCiśnienieOpadyŚniegCzas trwania zjawisk
 Stacja t tx tn tng RH VA  wxwx mslp ppp RRR   cm mm wxwxwxwxwxwxwx
2019-09-30 15.7 20.9 12.6 11.8 72.6 12.9- 10.1--1000.2 974.2 3.9 0.5 0.0- 0.0--------
2019-09-29 14.6 20.1 9.8 9.0 75.5 12.2- 5.6--1010.8 984.5 0.0 0.0 0.0- 0.0--------
2019-09-28 15.0 19.5 12.5 10.5 85.1 14.4- 4.0--1013.8 987.4 1.9 1.9 0.0- 0.0--------
2019-09-27 14.2 18.7 11.7 10.4 87.5 14.0- 2.1--1015.5 989.0 0.8 0.0 0.8- 0.0--------
2019-09-26 14.0 16.8 12.9 12.2 91.9 14.6- 3.8--1010.9 984.5 0.0 0.0 0.0- 0.0--------
2019-09-25 11.2 18.4 2.7 -0.5 86.0 11.6- 2.0--1011.6 984.9 3.2 1.8 1.4- 0.0--------
2019-09-24 9.4 16.9 3.4 0.1 79.4 9.1- 2.6--1017.1 990.1 0.0 0.0 0.0- 0.0--------
2019-09-23 8.3 11.4 2.8 0.5 90.0 9.9- 3.3--1018.6 991.5 0.0 0.0 0.0- 0.0--------
2019-09-22 12.9 21.1 7.3 6.4 68.9 9.7- 3.8--1018.8 992.1 0.0 0.0 0.0- 0.0--------
2019-09-21 10.1 15.6 2.0 0.2 79.3 9.8- 4.8--1024.1 997.0 0.1 0.1 0.0- 0.0--------
2019-09-20 7.5 13.9 3.7 2.6 74.4 7.5- 5.3--1024.9 997.5 0.2 0.0 0.2- 0.0--------
2019-09-19 8.9 13.5 5.3 4.5 76.0 8.6- 5.1--1021.8 994.7 0.0 0.0 0.0- 0.0--------
2019-09-18 9.4 13.9 6.4 5.7 73.1 8.4- 9.3--1014.0 987.1 2.2 2.2 0.0- 0.0--------
2019-09-17 12.2 16.4 5.9 3.1 63.5 8.8- 5.9--1011.2 984.6 0.5 0.0 0.5- 0.0--------
2019-09-16 15.5 20.2 13.8 12.7 62.6 10.8- 5.9--1014.6 988.3 0.0 0.0 0.0- 0.0--------
2019-09-15 13.5 20.8 4.0 1.2 60.1 8.7- 4.4--1023.4 996.6 0.0 0.0 0.0- 0.0--------
2019-09-14 13.5 19.3 10.0 8.3 65.4 9.9- 4.4--1029.11002.2 0.0 0.0 0.0- 0.0--------
2019-09-13 17.1 23.6 8.9 5.4 69.9 13.2- 3.6--1027.01000.5 0.0 0.0 0.0- 0.0--------
2019-09-12 16.9 24.8 9.2 7.3 67.9 12.3- 2.5--1026.71000.2 0.0 0.0 0.0- 0.0--------
2019-09-11 16.4 25.1 8.2 5.5 70.9 12.6- 1.4--1024.4 997.8 0.0 0.0 0.0- 0.0--------
2019-09-10 15.6 20.8 12.3 9.7 69.4 12.0- 3.4--1019.8 993.4 0.0 0.0 0.0- 0.0--------
2019-09-09 19.8 25.9 13.0 9.0 57.0 12.2- 4.5--1015.0 989.0 0.1 0.0 0.1- 0.0--------
2019-09-08 18.3 24.0 13.7 11.9 72.9 15.1- 2.9--1018.0 991.9 0.0 0.0 0.0- 0.0--------
2019-09-07 16.7 23.9 8.0 6.2 70.5 13.0- 2.5--1019.6 993.3 0.0 0.0 0.0- 0.0--------
2019-09-06 15.7 21.4 9.5 7.5 69.5 11.8- 3.3--1021.2 994.7 0.0 0.0 0.0- 0.0--------
2019-09-05 15.4 22.7 7.7 5.0 73.6 12.3- 1.9--1016.6 990.2 0.0 0.0 0.0- 0.0--------
2019-09-04 14.6 21.5 9.6 6.5 79.3 12.6- 1.9--1020.7 994.1 0.0 0.0 0.0- 0.0--------
2019-09-03 14.0 21.1 12.7 12.6 89.1 14.3- 4.1--1021.3 994.7 0.5 0.5 0.0- 0.0--------
2019-09-02 21.4 27.4 14.5 11.3 73.9 18.5- 3.4--1014.3 988.5 15.1 0.0 15.1- 0.0--------
2019-09-01 21.1 29.7 10.9 8.6 68.5 16.2- 2.1--1014.9 989.0 0.0 0.0 0.0- 0.0--------
2019-08-31 21.5 29.3 14.6 12.6 69.1 16.8- 1.6--1021.0 995.0 0.0 0.0 0.0- 0.0--------
2019-08-30 21.0 28.1 16.0 13.6 77.3 18.8- 2.3--1021.0 995.0 0.0 0.0 0.0- 0.0--------
2019-08-29 23.1 31.7 14.6 11.5 64.1 17.2- 1.9--1018.9 993.0 0.0 0.0 0.0- 0.0--------
2019-08-28 22.4 30.9 14.5 9.9 59.6 15.1- 2.4--1021.1 995.2 0.0 0.0 0.0- 0.0--------
2019-08-27 22.0 30.0 14.4 11.9 62.0 15.5- 2.9--1022.8 996.8 0.0 0.0 0.0- 0.0--------
2019-08-26 21.6 29.3 13.8 10.7 62.6 15.7- 3.5--1023.5 997.4 0.0 0.0 0.0- 0.0--------
2019-08-25 19.9 27.6 12.1 8.4 65.0 14.5- 3.5--1024.6 998.4 0.0 0.0 0.0- 0.0--------
2019-08-24 18.1 24.9 10.2 7.4 68.9 13.6- 2.6--1026.4 999.9 0.0 0.0 0.0- 0.0--------
2019-08-23 18.0 22.8 15.0 14.1 73.8 15.0- 2.9--1028.21001.7 0.0 0.0 0.0- 0.0--------
2019-08-22 17.8 22.3 12.9 11.7 71.6 14.2- 3.6--1028.71002.2 0.0 0.0 0.0- 0.0--------
2019-08-21 19.9 26.9 16.1 15.5 80.0 18.6----1022.6 996.4 0.0 0.0 0.0- 0.0--------
2019-08-20 22.7 27.6 18.2 16.4 73.8 20.0----1020.5 994.6 0.0 0.0 0.0- 0.0--------
2019-08-19 24.7 31.6 16.7 14.1 60.3 18.1----1015.4 989.8 0.0 0.0 0.0- 0.0--------
2019-08-18 20.7 27.2 11.9 9.7 62.4 14.9----1013.7 987.8 0.0 0.0 0.0- 0.0--------
2019-08-17 17.1 24.6 8.7 6.5 70.0 12.9----1016.4 990.1 0.0 0.0 0.0- 0.0--------
2019-08-16 16.0 22.9 9.2 7.9 72.6 12.6----1016.6 990.3 0.0 0.0 0.0- 0.0--------
2019-08-15 15.1 21.3 8.2 6.9 76.9 12.7----1017.1 990.7 0.0 0.0 0.0- 0.0--------
2019-08-14 15.0 18.3 13.6 13.2 95.3 16.3----1014.5 988.1 35.9 35.8 0.1- 0.0--------
2019-08-13 19.0 24.0 18.2 18.1 90.0 19.8----1014.2 988.2 10.9 0.9 10.0- 0.0--------
2019-08-12 22.7 31.3 13.5 11.9 78.1 21.4----1014.2 988.5 3.5 2.2 1.3- 0.0--------
2019-08-11 21.3 27.1 17.9 17.7 72.1 17.6----1017.3 991.4 0.0 0.0 0.0- 0.0--------
2019-08-10 19.9 26.8 10.5 9.1 70.6 16.0----1015.0 989.0 10.4 0.0 10.4- 0.0--------
2019-08-09 20.3 27.0 14.1 11.2 61.8 13.9----1013.2 987.2 0.2 0.2 0.0- 0.0--------
2019-08-08 19.4 25.6 16.5 14.7 80.0 17.7----1009.5 983.6 1.1 1.1 0.0- 0.0--------
2019-08-07 21.4 30.4 18.0 16.0 79.4 19.4- 2.5--1009.4 983.7 17.2 7.4 9.8- 0.0--------
2019-08-06 20.1 28.3 12.6 9.4 71.0 15.9- 2.4--1012.0 986.1 0.2 0.0 0.2- 0.0--------
2019-08-05 17.1 23.4 10.8 8.1 72.9 13.7- 2.1--1013.1 986.9 0.0 0.0 0.0- 0.0--------
2019-08-04 15.8 23.7 9.0 6.6 74.0 12.8- 3.6--1012.1 985.9 0.4 0.4 0.0- 0.0--------
2019-08-03 16.7 22.8 11.9 9.6 75.1 13.8- 2.5--1010.6 984.4 0.1 0.1 0.0- 0.0--------
2019-08-02 17.6 24.3 12.8 11.2 74.4 14.6- 2.9--1012.5 986.4 0.0 0.0 0.0- 0.0--------
58.5 ms

 

Źródłem pochodzenia danych jest Instytut Meteorologii i Gospodarki Wodnej – Państwowy Instytut Badawczy. Dane Instytutu Meteorologii i Gospodarki Wodnej – Państwowego Instytutu Badawczego zostały przetworzone.

Dane źródłowe można odnaleźć na stronie https://dane.imgw.pl